St. George, Utah Weather observations

Data are for observation ending at time listed.
 Day   Time    Ave.   Ave.  Ave.  Vector   Max.   Stn.    Total    Solar   Ave.  
  of    of     Air    Rel.  Wind   Wind    Wind   Baro.  Precip.   Rad.    Soil  
Year   Day     Temp.  Hum.  Speed  Dir.    Gust   Pres.                    Temp. 
2015   (MST)    F      %     mph   deg.    mph     mb.     in.     W/m2     F   
------------------------------------------------------------------------------
  25    2:00   41.8    54    0.9    30      2.1   927.6    0.00       0    48.9
  25    2:10   41.5    55    0.9   315      2.8   927.8    0.00       0    48.8
  25    2:20   41.1    56    1.1    69      2.2   927.8    0.00       0    48.7
  25    2:30   40.6    57    0.6   277      2.3   927.8    0.00       0    48.7
  25    2:40   42.2    54    2.5    14      4.7   927.8    0.00       0    48.6
  25    2:50   42.3    54    0.6   186      4.2   927.8    0.00       0    48.5
  25    3:00   40.1    58    0.8   203      2.4   927.9    0.00       0    48.4
  25    3:10   39.1    60    0.3   248      1.2   928.0    0.00       0    48.4
  25    3:20   38.7    61    0.6   244      1.8   928.1    0.00       0    48.3
  25    3:30   38.5    62    0.9     3      1.8   928.0    0.00       0    48.3
  25    3:40   38.6    62    1.2   228      2.5   928.1    0.00       0    48.2
  25    3:50   38.0    62    1.2    58      2.9   928.1    0.00       0    48.1
  25    4:00   38.4    62    1.8    20      3.3   928.3    0.00       0    48.0
  25    4:10   38.8    62    1.0   248      2.2   928.4    0.00       0    48.0
  25    4:20   38.1    63    1.3   287      2.3   928.4    0.00       0    47.9
  25    4:30   38.7    62    1.9   358      2.6   928.5    0.00       0    47.8
  25    4:40   38.8    62    1.2    42      3.9   928.4    0.00       0    47.8
  25    4:50   38.1    63    1.6   184      3.7   928.5    0.00       0    47.7
  25    5:00   37.2    64    1.0   280      2.3   928.6    0.00       0    47.6
  25    5:10   36.7    65    0.2   202      0.9   928.6    0.00       0    47.6
  25    5:20   36.3    65    0.3   175      1.8   928.7    0.00       0    47.5
  25    5:30   36.2    65    1.2    27      2.5   928.8    0.00       0    47.4
  25    5:40   37.3    63    2.0   355      3.5   928.9    0.00       0    47.4
  25    5:50   37.6    62    0.9    10      2.8   928.9    0.00       0    47.3
  25    6:00   36.8    64    1.3   136      2.6   929.0    0.00       0    47.2
  25    6:10   36.0    65    0.7   289      2.9   929.1    0.00       0    47.2
  25    6:20   35.8    67    1.7   328      2.6   929.2    0.00       0    47.1
  25    6:30   35.6    67    0.6    45      1.7   929.3    0.00       0    47.0
  25    6:40   35.7    68    0.4   150      1.5   929.3    0.00       0    47.0
  25    6:50   35.8    68    0.9     6      2.0   929.4    0.00       0    46.9
  25    7:00   36.0    67    1.3   288      2.3   929.5    0.00       0    46.8
  25    7:10   35.4    68    0.4   114      1.9   929.6    0.00       0    46.8
  25    7:20   35.4    69    0.4    22      1.5   929.7    0.00       0    46.7
  25    7:30   35.5    68    1.2   266      3.6   929.7    0.00       0    46.7
  25    7:40   34.6    70    0.9   270      3.4   929.8    0.00       0    46.6
  25    7:50   34.5    71    0.7    61      1.6   929.8    0.00       5    46.5
  25    8:00   34.7    70    0.5    10      1.7   929.8    0.00       7    46.4
  25    8:10   35.0    70    0.5   189      2.4   929.9    0.00      12    46.4
  25    8:20   35.2    70    0.3   157      2.7   930.0    0.00      14    46.3
  25    8:30   36.5    67    1.9    66      4.0   930.2    0.00      66    46.3
  25    8:40   37.7    65    1.4   266      3.3   930.1    0.00     124    46.2
  25    8:50   38.4    63    1.5   263      3.4   930.1    0.00     151    46.1
  25    9:00   39.1    61    0.6   260      1.7   930.1    0.00     178    46.1
  25    9:10   40.5    59    1.8   298      3.1   930.3    0.00     113    46.0
  25    9:20   42.2    56    0.6   240      1.8   930.3    0.00     233    46.0
  25    9:30   42.7    55    2.5   180      4.7   930.4    0.00     262    46.0
  25    9:40   41.8    57    2.0   178      3.9   930.4    0.00     290    46.0
  25    9:50   42.2    56    1.5   203      3.1   930.3    0.00     317    46.0
  25   10:00   43.6    54    2.0   171      3.7   930.3    0.00     342    46.0
  25   10:10   43.4    54    2.9   178      5.1   930.3    0.00     368    46.0
  25   10:20   44.3    53    2.5   200      3.9   930.4    0.00     393    46.0
  25   10:30   45.1    51    2.7   214      4.5   930.3    0.00     417    46.0
  25   10:40   46.1    49    1.5   211      4.7   930.3    0.00     438    46.1
  25   10:50   47.5    47    1.6   218      3.9   930.2    0.00     458    46.0
  25   11:00   48.7    45    1.1   259      3.7   930.2    0.00     477    46.1
  25   11:10   49.3    44    2.2   168      5.8   930.0    0.00     492    46.1
  25   11:20   50.4    42    1.5   175      3.4   929.8    0.00     494    46.1
  25   11:30   51.0    41    1.3   296      4.3   929.8    0.00     134    46.1
  25   11:40   52.2    39    1.5   296      4.0   929.6    0.00     415    46.1
  25   11:50   53.4    38    1.4   239      2.9   929.4    0.00     506    46.1
  25   12:00   54.5    37    2.0   227      4.6   929.2    0.00     482    46.1
  25   12:10   54.7    36    2.2   216      4.4   928.9    0.00     569    46.2
  25   12:20   55.5    35    2.2   227      4.7   928.7    0.00     576    46.2
  25   12:30   56.6    34    2.8   246      5.2   928.4    0.00     582    46.3
  25   12:40   57.6    34    2.6   236      5.7   928.2    0.00     586    46.4
  25   12:50   58.7    33    2.5   270      6.6   928.0    0.00     587    46.5
  25   13:00   59.5    33    1.7   226      5.3   927.9    0.00     587    46.7
  25   13:10   59.7    33    2.4   211      6.4   927.7    0.00     587    46.9
  25   13:20   60.0    32    3.0   196      6.7   927.4    0.00     585    47.0
  25   13:30   59.8    33    3.0   198      7.3   927.1    0.00     580    47.2
  25   13:40   60.1    32    4.1   214      8.5   926.8    0.00     576    47.5
  25   13:50   60.5    32    3.2   243      5.8   926.5    0.00     569    47.7
  25   14:00   61.2    31    2.6   221      6.0   926.2    0.00     560    47.9
  25   14:10   62.0    30    2.7   197      5.8   926.1    0.00     551    48.2
  25   14:20   62.5    30    3.1   235      6.1   925.7    0.00     538    48.4
  25   14:30   63.0    29    2.4   279      5.6   925.3    0.00     524    48.7
  25   14:40   64.1    28    2.3   244      6.4   925.6    0.00     510    49.0
  25   14:50   64.2    28    3.1   226      5.6   925.5    0.00     494    49.2
  25   15:00   64.8    27    2.1   222      6.4   925.1    0.00     476    49.5
  25   15:10   65.4    27    1.9   220      5.2   925.2    0.00     456    49.7
  25   15:20   65.9    26    2.2   227      5.5   925.2    0.00     435    50.0
  25   15:30   65.6    27    3.6   202      5.9   923.8    0.00     413    50.3
  25   15:40   65.4    27    3.7   210      6.6   923.0    0.00     368    50.5
  25   15:50   66.1    26    3.2   228      5.6   922.2    0.00     320    50.8
  25   16:00   66.2    26    3.9   230      7.3   922.4    0.00     340    51.0
  25   16:10   66.8    26    3.0   239      7.7   922.4    0.00     280    51.2
  25   16:20   66.8    26    2.9   211      5.2   922.2    0.00     286    51.4
  25   16:30   66.9    26    1.8   182      3.9   921.8    0.00     258    51.7
  25   16:40   67.7    25    2.2   243      5.3   921.9    0.00     215    51.9
  25   16:50   67.5    25    2.0   238      4.1   922.3    0.00     201    52.1
  25   17:00   67.8    25    2.5   211      4.2   922.2    0.00     168    52.3
  25   17:10   67.1    26    1.9   182      3.5   922.1    0.00     136    52.5
  25   17:20   68.2    25    0.6   227      1.9   922.2    0.00     111    52.6
  25   17:30   68.3    25    1.0   309      2.1   922.1    0.00      80    52.8
  25   17:40   67.7    25    1.4   301      2.0   922.2    0.00      47    52.9
  25   17:50   65.1    28    1.4   303      2.3   922.3    0.00       8    53.0
  25   18:00   62.7    30    1.1   337      2.1   922.2    0.00       3    53.1
  25   18:10   61.6    31    1.2   330      2.0   922.2    0.00       2    53.2
  25   18:20   60.6    32    0.4   310      1.1   922.4    0.00       0    53.3
  25   18:30   58.8    35    0.6   339      2.0   922.9    0.00       0    53.3
  25   18:40   59.0    34    1.4   350      2.3   923.4    0.00       0    53.4
  25   18:50   58.2    36    0.4   162      1.4   923.7    0.00       0    53.4
  25   19:00   56.6    38    0.9   130      1.7   923.8    0.00       0    53.4
  25   19:10   55.9    40    0.2    64      1.6   924.0    0.00       0    53.4
  25   19:20   55.9    40    0.8     5      1.5   924.2    0.00       0    53.4
  25   19:30   55.8    40    1.3   357      2.0   924.1    0.00       0    53.3
  25   19:40   54.8    42    0.8     0      2.0   924.3    0.00       0    53.3
  25   19:50   54.3    42    0.4    45      1.1   924.6    0.00       0    53.3
  25   20:00   54.1    43    1.4    38      2.4   924.8    0.00       0    53.2
  25   20:10   53.6    44    0.3    74      1.2   924.8    0.00       0    53.2
  25   20:20   53.0    44    0.0   352      0.6   924.9    0.00       0    53.1
  25   20:30   52.3    45    0.2    19      1.2   925.1    0.00       0    53.1
  25   20:40   52.1    46    0.1   276      1.3   925.1    0.00       0    53.0
  25   20:50   51.7    46    1.3   342      2.1   925.4    0.00       0    53.0
  25   21:00   51.4    47    0.4   358      1.9   925.4    0.00       0    52.9
  25   21:10   50.5    49    0.8    37      1.8   925.5    0.00       0    52.8
  25   21:20   50.2    50    1.1    18      1.9   925.7    0.00       0    52.8
  25   21:30   50.8    48    1.1   353      2.9   925.8    0.00       0    52.7
  25   21:40   50.2    50    0.8   147      2.5   925.8    0.00       0    52.6
  25   21:50   49.7    50    0.8    53      2.5   925.9    0.00       0    52.6
  25   22:00   49.1    51    0.5    57      1.5   926.0    0.00       0    52.5
  25   22:10   48.5    53    1.6   253      3.1   926.2    0.00       0    52.4
  25   22:20   48.2    53    1.5   328      2.5   926.2    0.00       0    52.4
  25   22:30   47.9    54    0.6   336      2.0   926.4    0.00       0    52.3
  25   22:40   48.1    53    1.9     2      2.5   926.5    0.00       0    52.2
  25   22:50   48.6    53    1.9    15      3.0   926.6    0.00       0    52.1
  25   23:00   48.3    53    1.0    13      2.1   926.6    0.00       0    52.1
  25   23:10   48.0    54    0.7   351      1.9   926.6    0.00       0    52.0
  25   23:20   47.6    54    0.2   316      1.2   926.7    0.00       0    51.9
  25   23:30   46.4    57    0.6   139      1.7   926.8    0.00       0    51.8
  25   23:40   45.4    59    1.2   153      2.8   926.9    0.00       0    51.8
  25   23:50   45.1    60    1.5    34      2.4   926.9    0.00       0    51.7
  26    0:00   45.8    59    1.9    20      3.0   926.9    0.00       0    51.6
  26    0:10   45.8    59    1.0    46      1.6   927.1    0.00       0    51.5
  26    0:20   45.5    59    0.4    72      1.2   927.2    0.00       0    51.4
  26    0:30   45.3    59    0.7    97      1.9   927.2    0.00       0    51.4
  26    0:40   45.3    59    0.7    74      1.7   927.1    0.00       0    51.3
  26    0:50   45.6    59    1.2   354      2.5   927.1    0.00       0    51.2
  26    1:00   45.2    59    0.8   279      2.0   927.1    0.00       0    51.2
  26    1:10   44.6    61    0.6   197      1.6   927.0    0.00       0    51.1
  26    1:20   43.7    63    0.3   335      1.9   926.9    0.00       0    51.0
  26    1:30   43.9    62    1.3   331      2.0   926.9    0.00       0    50.9
  26    1:40   44.1    62    1.5   322      2.7   926.7    0.00       0    50.9
  26    1:50   44.2    61    0.9   340      2.3   926.6    0.00       0    50.8

Return to St. George, Utah graphs page.


Western Regional Climate Center,wrcc@dri.edu